Historique des mesures à Cassis (13260), France
Quotidien Résumé Avril 23, 2018 Unités:  Métrique    US   Métrique/US
« Précédent (Jour)
Suivant (Jour) »
Quotidien Hebdomadaire Mensuel Annuel Période au choix
  Maximum: Minimum: Moyenne:
Température: TemperatureC °C 15.9 °C 19 °C
Point de rosée: DewpointC °C 8.3 °C 11.2 °C
Humidité: Humidity % 48 % 58 %
Vitesse du vent: 0 km/h 0 km/h 3.4 km/h
Rafales: 0 km/h - -
Vent:- - SSW
Pression: PressurehPa hPa 1013.8 hPa -
Précipitations: 0.0 mm    
Historical Graphs
 
 
Mesures pour : Avril 23, 2018
Heure Temperature Point de rosée Pression Vent Vitesse du vent Rafales Humidité Pluie (par heure) Conditions
TemperatureC °C DewpointC °C PressurehPa hPa Calm     Humidity % HourlyPrecipMM mm SoftwareType W/m2
00:10 17.4 °C 9.0 °C 1015.8 hPa Calm     58 % 0.0 mm open2300-1.11 W/m2
01:10 16.5 °C 8.8 °C 1015.8 hPa NNW 1.8 km/h 2.9 km/h 60 % 0.0 mm open2300-1.11 W/m2
02:10 16.8 °C 9.0 °C 1015.5 hPa Calm   3.4 km/h 60 % 0.0 mm open2300-1.11 W/m2
03:10 16.8 °C 9.0 °C 1014.8 hPa NNW 2.3 km/h 6.4 km/h 60 % 0.0 mm open2300-1.11 W/m2
04:10 16.5 °C 8.5 °C 1014.8 hPa NW 5.1 km/h 7.6 km/h 59 % 0.0 mm open2300-1.11 W/m2
05:10 16.3 °C 8.3 °C 1014.8 hPa Calm   2.3 km/h 59 % 0.0 mm open2300-1.11 W/m2
06:10 16.2 °C 8.5 °C 1014.4 hPa NNW 4.2 km/h 5.1 km/h 60 % 0.0 mm open2300-1.11 W/m2
07:12 15.9 °C 8.7 °C 1014.8 hPa NNW 3.4 km/h 3.4 km/h 62 % 0.0 mm open2300-1.11 W/m2
08:12 17.3 °C 9.9 °C 1015.8 hPa Calm     62 % 0.0 mm open2300-1.11 W/m2
09:11 18.3 °C 10.6 °C 1015.5 hPa Calm     61 % 0.0 mm open2300-1.11 W/m2
10:11 19.3 °C 11.4 °C 1015.8 hPa SSE 5.6 km/h 13.2 km/h 60 % 0.0 mm open2300-1.11 W/m2
11:11 22.6 °C 12.8 °C 1016.1 hPa ESE 3.4 km/h 8 km/h 54 % 0.0 mm open2300-1.11 W/m2
12:12 24.2 °C 12.5 °C 1016.1 hPa South 7.6 km/h 7.6 km/h 48 % 0.0 mm open2300-1.11 W/m2
13:11 24.5 °C 14.6 °C 1016.1 hPa SSE 4.2 km/h 6.9 km/h 54 % 0.0 mm open2300-1.11 W/m2
14:11 24.8 °C 14.6 °C 1015.8 hPa Calm   9.8 km/h 53 % 0.0 mm open2300-1.11 W/m2
15:12 24.4 °C 13.6 °C 1015.5 hPa SSW 16.9 km/h 16.9 km/h 51 % 0.0 mm open2300-1.11 W/m2
16:11 23.6 °C 13.4 °C 1015.1 hPa SE 8.9 km/h 8.9 km/h 53 % 0.0 mm open2300-1.11 W/m2
17:11 22.8 °C 13.8 °C 1014.8 hPa Calm   5.1 km/h 57 % 0.0 mm open2300-1.11 W/m2
18:10 21.8 °C 13.9 °C 1014.4 hPa SE 6.4 km/h 6.4 km/h 61 % 0.0 mm open2300-1.11 W/m2
18:12 21.8 °C 13.9 °C 1014.4 hPa SE 6.4 km/h 6.4 km/h 61 % 0.0 mm open2300-1.11 W/m2
19:10 20.6 °C 13.8 °C 1013.8 hPa Calm     65 % 0.0 mm open2300-1.11 W/m2
20:10 19.4 °C 13.3 °C 1014.1 hPa Calm     68 % 0.0 mm open2300-1.11 W/m2
21:10 18.8 °C 13.2 °C 1014.4 hPa SSW 5.1 km/h 5.1 km/h 70 % 0.0 mm open2300-1.11 W/m2
22:10 18.3 °C 13.4 °C 1014.4 hPa Calm     73 % 0.0 mm open2300-1.11 W/m2
23:10 17.9 °C 13.2 °C 1014.4 hPa North 5.1 km/h 5.1 km/h 74 % 0.0 mm open2300-1.11 W/m2
Observations météo à CASSIS
WU-History script by Weather Underground - 1 mb